Tolstoy, South Dakota
Current Conditions -  °F | °C
As of 12:52 PM on Thursday 18 Dec 2014 (Local Time) from KMBG Reporting Station
Haze Haze  
Wind Chill: 15°   Ceiling: 500
Heat Index: 25°   Visibility: 5mi
Dew Point: 23°   Wind: 10mph
Humidity: 92%   Direction: 170°S
Pressure: 30.04"   Gusts: NA
Location:  45.21°N, 99.61°W
Report Text: KMBG 181852Z AUTO 17009KT 5SM BR OVC005 M04/M05 A3004 RMK AO2 SLP202 T10391050
Loading
Personal Weather Stations






























Interactive Weather Map New forecast layout! Learn more

10-Day Weather Forecast

Advertisements
Track Severe Weather on mobile